Time;durP1;ratioP1;P1;durP2;ratioP2;P2;SDS_P1;SDS_P2;PMS_P1;PMS_P2;Temp;Humidity;BMP_temperature;BMP_pressure;BME280_temperature;BME280_humidity;BME280_pressure;Samples;Min_cycle;Max_cycle;Signal;HPM_P1;HPM_P2
2023/10/17 00:00:12;;;;;;;3.85;1.77;;;5.90;99.90;;;;;;5112282;28;20085;-62
2023/10/17 00:02:40;;;;;;;3.72;1.42;;;5.80;99.90;;;;;;5112779;27;20047;-62
2023/10/17 00:05:09;;;;;;;2.20;1.25;;;5.80;99.90;;;;;;5112730;27;20114;-62
2023/10/17 00:07:35;;;;;;;2.20;1.02;;;5.80;99.90;;;;;;5094927;27;20058;-62
2023/10/17 00:10:01;;;;;;;2.63;1.40;;;5.70;99.90;;;;;;5130329;27;20398;-62
2023/10/17 00:12:39;;;;;;;5.03;1.65;;;5.70;99.90;;;;;;5112625;27;20103;-62
2023/10/17 00:15:16;;;;;;;1.88;1.00;;;5.70;99.90;;;;;;5112661;28;20066;-62
2023/10/17 00:17:42;;;;;;;4.00;1.25;;;5.70;99.90;;;;;;5130588;28;20042;-62
2023/10/17 00:20:16;;;;;;;2.83;1.20;;;5.60;99.90;;;;;;5131025;28;20032;-62
2023/10/17 00:22:42;;;;;;;3.78;1.35;;;5.60;99.90;;;;;;5111469;28;20126;-62
2023/10/17 00:25:11;;;;;;;2.47;1.10;;;5.60;99.90;;;;;;5112300;28;20059;-62
2023/10/17 00:27:37;;;;;;;1.60;1.20;;;5.60;99.90;;;;;;5131061;28;20091;-62
2023/10/17 00:30:04;;;;;;;1.52;1.05;;;5.60;99.90;;;;;;5094865;28;20027;-62
2023/10/17 00:32:31;;;;;;;2.67;1.48;;;5.50;99.90;;;;;;5112557;28;20087;-62
2023/10/17 00:34:57;;;;;;;1.85;1.40;;;5.50;99.90;;;;;;5095145;28;20047;-62
2023/10/17 00:37:30;;;;;;;1.55;1.20;;;5.50;99.90;;;;;;5112362;28;20031;-62
2023/10/17 00:39:56;;;;;;;3.50;1.73;;;5.50;99.90;;;;;;5111604;28;20110;-62
2023/10/17 00:42:29;;;;;;;1.77;1.30;;;5.50;99.90;;;;;;5112714;28;20474;-62
2023/10/17 00:44:55;;;;;;;3.30;1.80;;;5.40;99.90;;;;;;5112085;28;20035;-62
2023/10/17 00:47:22;;;;;;;2.60;1.40;;;5.40;99.90;;;;;;5130918;28;20031;-62
2023/10/17 00:49:49;;;;;;;1.77;1.38;;;5.30;99.90;;;;;;5130330;28;20475;-62
2023/10/17 00:52:25;;;;;;;2.58;1.55;;;5.30;99.90;;;;;;5130575;28;20046;-62
2023/10/17 00:54:55;;;;;;;4.72;1.70;;;5.40;99.90;;;;;;5115652;27;20028;-62
2023/10/17 00:57:22;;;;;;;4.45;1.20;;;5.50;99.90;;;;;;5134480;27;20068;-62
2023/10/17 00:59:52;;;;;;;2.20;1.40;;;5.40;99.90;;;;;;5116144;27;20826;-62
2023/10/17 01:02:29;;;;;;;2.05;1.58;;;5.50;99.90;;;;;;5133597;27;20058;-62
2023/10/17 01:04:59;;;;;;;2.42;1.65;;;5.50;99.90;;;;;;5099291;27;20500;-62
2023/10/17 01:07:35;;;;;;;2.22;1.60;;;5.50;99.90;;;;;;5134411;27;20445;-62
2023/10/17 01:10:17;;;;;;;4.90;1.58;;;5.60;99.90;;;;;;5134492;27;20043;-62
2023/10/17 01:12:54;;;;;;;2.95;1.55;;;5.60;99.90;;;;;;5115573;27;20047;-62
2023/10/17 01:15:29;;;;;;;1.80;1.20;;;5.60;99.90;;;;;;5115711;27;20038;-62
2023/10/17 01:18:06;;;;;;;1.92;1.50;;;5.60;99.90;;;;;;5134494;27;20397;-62
2023/10/17 01:20:32;;;;;;;2.67;1.40;;;5.60;99.90;;;;;;5115987;27;20042;-62
2023/10/17 01:23:00;;;;;;;1.85;1.17;;;5.60;99.90;;;;;;5115261;27;20063;-62
2023/10/17 01:25:29;;;;;;;2.95;1.70;;;5.60;99.90;;;;;;5115556;27;20089;-62
2023/10/17 01:27:59;;;;;;;5.03;2.25;;;5.50;99.90;;;;;;5098301;27;20050;-62
2023/10/17 01:30:29;;;;;;;2.00;1.42;;;5.60;99.90;;;;;;5115368;27;20117;-61
2023/10/17 01:32:56;;;;;;;3.03;1.45;;;5.60;99.90;;;;;;5115366;27;20130;-62
2023/10/17 01:35:23;;;;;;;2.40;1.50;;;5.60;99.90;;;;;;5133899;27;20041;-62
2023/10/17 01:37:49;;;;;;;1.90;1.33;;;5.50;99.90;;;;;;5133838;27;20031;-62
2023/10/17 01:40:27;;;;;;;3.58;1.35;;;5.50;99.90;;;;;;5133864;27;20042;-62
2023/10/17 01:42:56;;;;;;;3.63;1.40;;;5.50;99.90;;;;;;5133657;27;20027;-62
2023/10/17 01:45:25;;;;;;;2.83;1.40;;;5.50;99.90;;;;;;5115264;27;20035;-62
2023/10/17 01:47:51;;;;;;;1.92;1.15;;;5.50;99.90;;;;;;5115467;27;20050;-62
2023/10/17 01:50:18;;;;;;;3.88;1.40;;;5.50;99.90;;;;;;5115201;27;20031;-62
2023/10/17 01:52:45;;;;;;;1.80;1.23;;;5.50;99.90;;;;;;5114662;27;20055;-61
2023/10/17 01:55:15;;;;;;;2.42;1.30;;;5.40;99.90;;;;;;5115034;27;20046;-62
2023/10/17 01:57:43;;;;;;;1.95;1.42;;;5.40;99.90;;;;;;5097917;27;20031;-62
2023/10/17 02:00:36;;;;;;;1.70;1.13;;;5.40;99.90;;;;;;5115573;27;20485;-62
2023/10/17 02:03:12;;;;;;;1.20;1.10;;;5.40;99.90;;;;;;5114590;27;20051;-62
2023/10/17 02:05:37;;;;;;;2.78;1.13;;;5.40;99.90;;;;;;5132310;27;20039;-62
2023/10/17 02:08:05;;;;;;;2.08;1.40;;;5.30;99.90;;;;;;5115165;27;20103;-62
2023/10/17 02:10:31;;;;;;;1.83;1.40;;;5.30;99.90;;;;;;5097740;27;20164;-62
2023/10/17 02:12:57;;;;;;;2.15;1.55;;;5.30;99.90;;;;;;5114906;27;20042;-62
2023/10/17 02:15:23;;;;;;;3.30;1.55;;;5.30;99.90;;;;;;5113612;27;20179;-61
2023/10/17 02:17:53;;;;;;;2.78;1.48;;;5.20;99.90;;;;;;5114282;27;20124;-62
2023/10/17 02:20:30;;;;;;;2.28;1.40;;;5.20;99.90;;;;;;5133259;27;20042;-62
2023/10/17 02:23:08;;;;;;;2.42;1.50;;;5.20;99.90;;;;;;5114441;27;20381;-62
2023/10/17 02:25:35;;;;;;;2.33;1.63;;;5.20;99.90;;;;;;5114016;27;20475;-62
2023/10/17 02:28:01;;;;;;;2.00;1.60;;;5.20;99.90;;;;;;5132818;27;20051;-62
2023/10/17 02:30:27;;;;;;;2.00;1.40;;;5.30;99.90;;;;;;5097054;27;20191;-61
2023/10/17 02:32:53;;;;;;;1.65;1.20;;;5.30;99.90;;;;;;5113985;27;20125;-62
2023/10/17 02:35:36;;;;;;;1.70;1.20;;;5.20;99.90;;;;;;5114163;27;20407;-62
2023/10/17 02:38:04;;;;;;;1.45;1.20;;;5.20;99.90;;;;;;5097065;27;20043;-61
2023/10/17 02:40:34;;;;;;;1.20;1.10;;;5.20;99.90;;;;;;5113974;27;20046;-62
2023/10/17 02:43:00;;;;;;;1.20;1.10;;;5.20;99.90;;;;;;5114005;27;20084;-62
2023/10/17 02:45:25;;;;;;;2.00;0.90;;;5.20;99.90;;;;;;5113964;27;20031;-62
2023/10/17 02:48:06;;;;;;;1.25;0.90;;;5.10;99.90;;;;;;5132388;27;20109;-62
2023/10/17 02:53:05;;;;;;;1.88;1.15;;;5.00;99.90;;;;;;5114111;27;20082;-62
2023/10/17 02:55:30;;;;;;;1.58;1.20;;;5.00;99.90;;;;;;5132444;27;20076;-62
2023/10/17 02:57:56;;;;;;;1.50;1.25;;;5.00;99.90;;;;;;5113577;27;20091;-62
2023/10/17 03:00:23;;;;;;;2.35;1.17;;;5.00;99.90;;;;;;5113827;27;20050;-62
2023/10/17 03:02:55;;;;;;;1.23;1.10;;;4.90;99.90;;;;;;5132135;27;20115;-61
2023/10/17 03:05:21;;;;;;;2.88;1.20;;;4.80;99.90;;;;;;5132117;27;20160;-62
2023/10/17 03:07:50;;;;;;;1.98;1.10;;;4.80;99.90;;;;;;5113223;27;20034;-62
2023/10/17 03:10:37;;;;;;;1.98;1.23;;;4.70;99.90;;;;;;5113950;27;20035;-62
2023/10/17 03:13:14;;;;;;;1.20;0.95;;;4.70;99.90;;;;;;5131746;27;20042;-61
2023/10/17 03:15:46;;;;;;;1.48;0.90;;;4.70;99.90;;;;;;5113550;27;20057;-62
2023/10/17 03:18:16;;;;;;;1.17;1.08;;;4.70;99.90;;;;;;5112440;27;20047;-62
2023/10/17 03:20:53;;;;;;;2.63;1.10;;;4.70;99.90;;;;;;5096291;27;20423;-62
2023/10/17 03:23:29;;;;;;;2.35;1.10;;;4.70;99.90;;;;;;5113367;27;20050;-62
2023/10/17 03:26:02;;;;;;;1.60;0.98;;;4.70;99.90;;;;;;5113633;27;20039;-62
2023/10/17 03:28:28;;;;;;;2.25;1.20;;;4.70;99.90;;;;;;5112969;27;20046;-61
2023/10/17 03:30:54;;;;;;;2.75;1.10;;;4.70;99.90;;;;;;5131603;27;20031;-61
2023/10/17 03:33:26;;;;;;;1.40;1.25;;;4.70;99.90;;;;;;5131512;27;20481;-62
2023/10/17 03:38:32;;;;;;;2.03;1.60;;;4.60;99.90;;;;;;5112837;27;20043;-62
2023/10/17 03:41:07;;;;;;;1.93;1.40;;;4.60;99.90;;;;;;5113197;27;20110;-62
2023/10/17 03:43:39;;;;;;;1.55;1.45;;;4.60;99.90;;;;;;5112859;27;20039;-62
2023/10/17 03:46:05;;;;;;;2.30;1.90;;;4.60;99.90;;;;;;5112918;27;20123;-61
2023/10/17 03:48:36;;;;;;;3.30;1.50;;;4.60;99.90;;;;;;5095285;27;20047;-62
2023/10/17 03:53:42;;;;;;;3.03;1.65;;;4.60;99.90;;;;;;5113186;27;20055;-62
2023/10/17 03:56:11;;;;;;;2.13;1.60;;;4.70;99.90;;;;;;5131141;27;20045;-62
2023/10/17 04:01:26;;;;;;;2.22;1.50;;;4.70;99.90;;;;;;5130670;27;20046;-62
2023/10/17 04:03:53;;;;;;;3.08;1.50;;;4.70;99.90;;;;;;5130926;27;20038;-62
2023/10/17 04:11:49;;;;;;;3.35;1.60;;;4.50;99.90;;;;;;5112387;27;20058;-62
2023/10/17 04:14:17;;;;;;;2.10;1.58;;;4.60;99.90;;;;;;5112682;27;20039;-62
2023/10/17 04:16:46;;;;;;;2.42;1.48;;;4.50;99.90;;;;;;5131305;28;20074;-63
2023/10/17 04:19:18;;;;;;;3.00;1.40;;;4.50;99.90;;;;;;5112688;28;20160;-62
2023/10/17 04:24:34;;;;;;;2.25;1.60;;;4.50;99.90;;;;;;5112055;28;20058;-62
2023/10/17 04:29:33;;;;;;;1.88;1.50;;;4.50;99.90;;;;;;5133632;27;20043;-62
2023/10/17 04:32:01;;;;;;;2.35;1.40;;;4.40;99.90;;;;;;5116314;27;20099;-61
2023/10/17 04:34:28;;;;;;;1.50;1.33;;;4.40;99.90;;;;;;5116689;27;20043;-62
2023/10/17 04:36:56;;;;;;;4.10;1.65;;;4.30;99.90;;;;;;5135020;27;20050;-62
2023/10/17 04:44:20;;;;;;;2.10;1.60;;;4.30;99.90;;;;;;5116333;27;20043;-62
2023/10/17 04:49:39;;;;;;;2.22;1.70;;;4.20;99.90;;;;;;5077900;27;20055;-62
2023/10/17 04:52:08;;;;;;;2.30;1.45;;;4.20;99.90;;;;;;5134931;27;20038;-62
2023/10/17 04:57:05;;;;;;;2.67;1.38;;;4.20;99.90;;;;;;5134846;27;20031;-62
2023/10/17 06:19:21;;;;;;;3.92;2.10;;;4.30;99.90;;;;;;5029193;28;20081;-61
2023/10/17 06:30:26;;;;;;;3.03;1.60;;;4.30;99.90;;;;;;5010322;28;20143;-61
2023/10/17 06:35:52;;;;;;;3.80;1.80;;;4.40;99.90;;;;;;5009484;28;20621;-61
2023/10/17 06:38:27;;;;;;;2.88;1.95;;;4.40;99.90;;;;;;4977209;28;20108;-61
2023/10/17 06:40:53;;;;;;;4.07;2.10;;;4.50;99.90;;;;;;4993760;28;20097;-62
2023/10/17 06:43:28;;;;;;;3.60;2.13;;;4.60;99.90;;;;;;4993623;28;20046;-62
2023/10/17 06:45:55;;;;;;;3.45;1.95;;;4.60;99.90;;;;;;4977638;28;20061;-62
2023/10/17 06:48:31;;;;;;;3.45;1.90;;;4.70;99.90;;;;;;5063490;28;20086;-62
2023/10/17 06:53:48;;;;;;;4.20;2.50;;;4.80;99.90;;;;;;5093035;28;20062;-61
2023/10/17 06:56:15;;;;;;;5.70;2.20;;;4.80;99.90;;;;;;5109716;28;20078;-61
2023/10/17 06:58:40;;;;;;;3.42;2.55;;;5.00;99.90;;;;;;5092279;28;20055;-61
2023/10/17 07:01:19;;;;;;;4.15;2.60;;;5.10;99.90;;;;;;5092721;28;20082;-62
2023/10/17 07:03:45;;;;;;;3.80;2.30;;;5.20;99.90;;;;;;5109501;28;20528;-61
2023/10/17 07:06:13;;;;;;;7.55;3.15;;;5.40;99.90;;;;;;5092576;28;20067;-62
2023/10/17 07:08:40;;;;;;;5.22;2.67;;;5.50;99.90;;;;;;5109431;28;20092;-62
2023/10/17 07:11:09;;;;;;;4.25;2.80;;;5.60;99.90;;;;;;5118246;27;20515;-62
2023/10/17 07:16:41;;;;;;;6.63;3.42;;;5.80;99.90;;;;;;5113832;27;20058;-61
2023/10/17 07:21:56;;;;;;;4.18;3.40;;;6.10;99.90;;;;;;5132024;27;20181;-62
2023/10/17 07:24:23;;;;;;;4.35;3.00;;;6.20;99.90;;;;;;5131974;27;20442;-61
2023/10/17 07:26:58;;;;;;;5.03;3.40;;;6.30;99.90;;;;;;5113199;27;20414;-62
2023/10/17 07:29:24;;;;;;;5.55;3.28;;;6.40;99.90;;;;;;5132177;27;20061;-62
2023/10/17 07:31:52;;;;;;;4.07;3.10;;;6.50;99.90;;;;;;5131947;27;20035;-61
2023/10/17 07:34:23;;;;;;;7.45;3.60;;;6.60;99.90;;;;;;5113437;27;20047;-61
2023/10/17 07:37:34;;;;;;;4.63;3.58;;;6.70;99.90;;;;;;5131694;27;20034;-62
2023/10/17 07:39:39;;;;;;;11.93;3.85;;;6.80;99.90;;;;;;5120282;27;20054;-62
2023/10/17 07:42:14;;;;;;;10.88;4.40;;;7.00;99.90;;;;;;5131877;27;20494;-61
2023/10/17 07:44:41;;;;;;;18.65;12.25;;;7.10;99.90;;;;;;5113211;27;20118;-62
2023/10/17 07:49:38;;;;;;;8.50;5.95;;;7.20;99.90;;;;;;5131747;27;20401;-62
2023/10/17 07:52:12;;;;;;;7.03;5.65;;;7.40;99.90;;;;;;5113243;27;20038;-62
2023/10/17 07:54:57;;;;;;;9.38;5.50;;;7.40;99.90;;;;;;5113053;27;20050;-62
2023/10/17 07:57:28;;;;;;;8.23;4.43;;;7.50;99.90;;;;;;5096043;27;20465;-62
2023/10/17 07:59:57;;;;;;;8.13;4.68;;;7.60;99.90;;;;;;5113084;27;20074;-61
2023/10/17 08:02:23;;;;;;;7.38;4.82;;;7.70;99.90;;;;;;5113292;28;20126;-62
2023/10/17 08:04:51;;;;;;;7.40;4.80;;;7.80;99.90;;;;;;5112303;28;20055;-62
2023/10/17 08:07:20;;;;;;;11.52;4.95;;;7.90;99.90;;;;;;5131701;27;20043;-62
2023/10/17 08:10:10;;;;;;;7.97;4.90;;;7.90;99.90;;;;;;5112941;27;20389;-61
2023/10/17 08:12:35;;;;;;;9.25;4.63;;;8.10;99.90;;;;;;5131395;27;20039;-62
2023/10/17 08:15:19;;;;;;;8.02;4.65;;;8.20;99.90;;;;;;5112997;27;20530;-62
2023/10/17 08:17:45;;;;;;;7.55;4.93;;;8.30;99.90;;;;;;5112564;28;20086;-61
2023/10/17 08:22:55;;;;;;;6.63;4.40;;;8.60;99.90;;;;;;5112914;28;20375;-62
2023/10/17 08:25:32;;;;;;;4.78;4.00;;;8.70;99.90;;;;;;5112827;28;20143;-62
2023/10/17 08:27:58;;;;;;;8.15;4.20;;;8.80;99.90;;;;;;5131383;28;20363;-61
2023/10/17 08:30:25;;;;;;;8.85;4.80;;;8.90;99.90;;;;;;5131217;28;20045;-62
2023/10/17 08:35:38;;;;;;;7.63;4.13;;;9.20;99.90;;;;;;5131460;28;20040;-61
2023/10/17 08:38:11;;;;;;;7.20;3.55;;;9.30;99.90;;;;;;5112629;28;20039;-61
2023/10/17 08:43:11;;;;;;;5.20;3.00;;;9.60;99.90;;;;;;5112192;28;20039;-62
2023/10/17 08:45:39;;;;;;;5.50;3.15;;;9.70;99.90;;;;;;5113002;28;20389;-62
2023/10/17 08:48:11;;;;;;;5.05;3.22;;;9.90;99.90;;;;;;5112677;28;20091;-62
2023/10/17 08:50:38;;;;;;;;;;;10.10;99.90;;;;;;5113515;28;20039;-62
2023/10/17 08:53:09;;;;;;;8.18;2.72;;;10.30;99.90;;;;;;5112328;28;20161;-62
2023/10/17 08:55:39;;;;;;;5.40;2.55;;;10.40;99.90;;;;;;5112278;28;20039;-62
2023/10/17 08:58:08;;;;;;;4.40;2.22;;;10.60;99.90;;;;;;5112292;28;20047;-62
2023/10/17 09:03:11;;;;;;;6.70;2.65;;;10.90;99.90;;;;;;5112338;28;20447;-62
2023/10/17 09:05:58;;;;;;;4.55;2.25;;;11.10;99.90;;;;;;5095724;28;20080;-61
2023/10/17 09:08:41;;;;;;;5.53;2.65;;;11.30;99.90;;;;;;5131028;28;20055;-62
2023/10/17 09:11:14;;;;;;;6.10;2.40;;;11.40;99.90;;;;;;5112337;28;20043;-62
2023/10/17 09:16:15;;;;;;;4.45;2.13;;;11.60;99.90;;;;;;5114291;27;20050;-62
2023/10/17 09:18:49;;;;;;;3.83;2.28;;;11.80;99.90;;;;;;5116156;27;20043;-62
2023/10/17 09:21:20;;;;;;;4.38;1.67;;;11.90;99.90;;;;;;5115857;27;20035;-62
2023/10/17 09:23:47;;;;;;;3.53;1.80;;;12.20;99.90;;;;;;5116331;27;20039;-62
2023/10/17 09:26:19;;;;;;;5.00;1.92;;;12.40;99.90;;;;;;5115699;27;20104;-62
2023/10/17 09:28:47;;;;;;;3.60;1.80;;;12.70;99.90;;;;;;5115806;27;20039;-62
2023/10/17 09:31:15;;;;;;;5.55;1.42;;;12.90;99.90;;;;;;5115686;27;20142;-62
2023/10/17 09:33:45;;;;;;;4.50;1.50;;;12.90;99.90;;;;;;5134384;27;20371;-62
2023/10/17 09:36:12;;;;;;;5.78;1.25;;;13.00;99.90;;;;;;5098472;27;20516;-62
2023/10/17 09:38:45;;;;;;;2.65;1.10;;;13.00;99.90;;;;;;5134183;27;20043;-62
2023/10/17 09:41:17;;;;;;;4.78;1.38;;;13.10;99.90;;;;;;5115556;27;20070;-62
2023/10/17 09:43:43;;;;;;;2.35;1.40;;;13.40;99.90;;;;;;5115798;27;20031;-62
2023/10/17 09:46:10;;;;;;;4.20;1.63;;;13.50;99.90;;;;;;5115652;27;20482;-62
2023/10/17 09:48:38;;;;;;;3.38;1.40;;;13.60;99.90;;;;;;5115621;27;20046;-62
2023/10/17 09:51:05;;;;;;;5.28;1.20;;;13.60;99.90;;;;;;5134060;27;20043;-62
2023/10/17 09:53:32;;;;;;;2.90;1.20;;;13.70;99.90;;;;;;5134204;27;20080;-62
2023/10/17 09:56:20;;;;;;;4.50;1.30;;;14.00;99.90;;;;;;5115551;27;20389;-62
2023/10/17 09:58:50;;;;;;;3.25;0.98;;;14.20;99.90;;;;;;5097784;27;20447;-62
2023/10/17 10:01:24;;;;;;;5.63;1.42;;;14.30;99.90;;;;;;5115165;27;20041;-62
2023/10/17 10:03:58;;;;;;;2.20;0.90;;;14.40;99.90;;;;;;5115616;27;20064;-62
2023/10/17 10:06:32;;;;;;;4.38;0.98;;;14.50;99.90;;;;;;5115172;27;20478;-62
2023/10/17 10:09:13;;;;;;;2.75;1.02;;;14.60;99.90;;;;;;5133515;27;20046;-62
2023/10/17 10:11:51;;;;;;;5.68;1.20;;;14.70;99.90;;;;;;5133639;27;20378;-62
2023/10/17 10:14:23;;;;;;;3.05;1.00;;;14.90;99.90;;;;;;5115094;27;20502;-62
2023/10/17 10:17:03;;;;;;;2.17;0.80;;;15.10;99.90;;;;;;5115336;27;20404;-62
2023/10/17 10:19:41;;;;;;;3.35;0.70;;;15.40;99.90;;;;;;5114733;27;20043;-62
2023/10/17 10:22:07;;;;;;;2.03;0.90;;;15.60;99.90;;;;;;5133702;27;20042;-62
2023/10/17 10:24:36;;;;;;;3.63;0.90;;;15.80;99.90;;;;;;5133261;27;20054;-62
2023/10/17 10:27:15;;;;;;;3.85;0.80;;;16.00;99.90;;;;;;5132611;27;20051;-62
2023/10/17 10:29:41;;;;;;;3.17;0.80;;;15.80;98.40;;;;;;5098140;27;20055;-62
2023/10/17 10:32:25;;;;;;;1.90;0.70;;;15.90;99.70;;;;;;5115224;27;20390;-62
2023/10/17 10:34:52;;;;;;;1.48;0.70;;;16.10;98.30;;;;;;5133292;27;20371;-62
2023/10/17 10:37:20;;;;;;;1.25;0.63;;;16.10;98.40;;;;;;5114527;27;20039;-62
2023/10/17 10:40:11;;;;;;;3.25;0.98;;;16.30;97.90;;;;;;5114427;27;20047;-62
2023/10/17 10:42:43;;;;;;;2.65;0.90;;;16.30;96.80;;;;;;5114643;27;20039;-62
2023/10/17 10:45:31;;;;;;;2.22;0.70;;;16.40;96.50;;;;;;5114837;27;20493;-62
2023/10/17 10:47:58;;;;;;;3.13;0.80;;;16.60;95.90;;;;;;5132877;27;20110;-62
2023/10/17 10:50:29;;;;;;;3.28;0.90;;;16.50;94.50;;;;;;5114418;27;20058;-62
2023/10/17 10:52:56;;;;;;;3.03;0.98;;;16.50;94.00;;;;;;5114398;27;20071;-62
2023/10/17 10:55:24;;;;;;;3.28;0.77;;;16.50;95.00;;;;;;5132506;27;20110;-62
2023/10/17 10:57:51;;;;;;;2.65;0.70;;;16.60;94.70;;;;;;5096729;27;20047;-62
2023/10/17 11:00:17;;;;;;;3.58;0.80;;;16.80;94.90;;;;;;5096544;27;20055;-62
2023/10/17 11:02:43;;;;;;;3.08;0.50;;;16.90;93.50;;;;;;5113599;27;20039;-62
2023/10/17 11:05:13;;;;;;;3.17;0.70;;;16.90;93.20;;;;;;5114661;27;20359;-62
2023/10/17 11:07:39;;;;;;;2.85;0.95;;;17.10;92.90;;;;;;5113959;27;20070;-61
2023/10/17 11:10:18;;;;;;;4.80;0.70;;;16.90;91.90;;;;;;5113869;27;20031;-62
2023/10/17 11:12:53;;;;;;;3.78;1.35;;;17.00;92.50;;;;;;5113911;27;20121;-62
2023/10/17 11:15:21;;;;;;;1.30;0.45;;;17.00;91.40;;;;;;5113868;27;20107;-62
2023/10/17 11:17:47;;;;;;;1.95;0.60;;;16.90;91.20;;;;;;5113838;27;20045;-62
2023/10/17 11:20:19;;;;;;;1.48;0.60;;;16.60;90.80;;;;;;5113792;27;20046;-62
2023/10/17 11:22:46;;;;;;;1.73;0.60;;;16.50;91.40;;;;;;5132100;27;20103;-62
2023/10/17 11:25:21;;;;;;;2.60;0.50;;;16.40;91.00;;;;;;5113713;27;20047;-62
2023/10/17 11:27:56;;;;;;;2.83;0.60;;;16.50;91.70;;;;;;5131834;27;20043;-62
2023/10/17 11:30:32;;;;;;;1.70;0.60;;;16.40;90.70;;;;;;5132197;27;20043;-62
2023/10/17 11:33:05;;;;;;;2.78;0.63;;;16.20;90.70;;;;;;5113579;27;20051;-62
2023/10/17 11:35:34;;;;;;;1.83;0.50;;;16.00;90.60;;;;;;5113311;27;20178;-62
2023/10/17 11:38:00;;;;;;;1.50;0.60;;;15.90;90.90;;;;;;5112953;27;20039;-62
2023/10/17 11:40:30;;;;;;;2.13;0.60;;;15.70;90.50;;;;;;5131784;27;20071;-63
2023/10/17 11:42:58;;;;;;;1.77;0.60;;;15.60;91.20;;;;;;5131816;27;20039;-62
2023/10/17 11:45:33;;;;;;;0.82;0.47;;;15.30;91.10;;;;;;5131822;27;20474;-62
2023/10/17 11:48:13;;;;;;;1.92;0.50;;;15.10;90.90;;;;;;5113449;27;20387;-62
2023/10/17 11:50:39;;;;;;;2.28;0.70;;;14.90;91.90;;;;;;5095907;27;20049;-63
2023/10/17 11:53:09;;;;;;;1.33;0.52;;;14.50;91.60;;;;;;5113417;27;20118;-62
2023/10/17 11:55:45;;;;;;;1.13;0.65;;;14.30;91.90;;;;;;5131558;27;20081;-62
2023/10/17 11:58:25;;;;;;;2.22;0.70;;;14.00;92.30;;;;;;5113444;27;20067;-62
2023/10/17 12:00:53;;;;;;;3.75;0.73;;;13.80;92.40;;;;;;5112987;27;20031;-62
2023/10/17 12:03:19;;;;;;;2.42;0.80;;;13.60;93.20;;;;;;5113366;27;20081;-62
2023/10/17 12:05:49;;;;;;;2.65;0.80;;;13.50;93.60;;;;;;5113068;27;20062;-62
2023/10/17 12:08:21;;;;;;;2.50;0.70;;;13.40;94.10;;;;;;5113559;27;20038;-62
2023/10/17 12:10:51;;;;;;;3.28;1.02;;;13.40;94.80;;;;;;5113016;27;20492;-62
2023/10/17 12:13:17;;;;;;;1.77;0.55;;;13.30;94.80;;;;;;5112885;27;20091;-62
2023/10/17 12:15:46;;;;;;;2.97;1.20;;;13.20;95.60;;;;;;5131321;27;20047;-61
2023/10/17 12:18:14;;;;;;;2.00;0.63;;;13.30;96.20;;;;;;5112814;28;20404;-62
2023/10/17 12:20:40;;;;;;;2.65;0.70;;;13.20;95.10;;;;;;5131134;28;20028;-62
2023/10/17 12:23:14;;;;;;;3.20;1.52;;;13.10;95.60;;;;;;5112939;28;20062;-62
2023/10/17 12:25:42;;;;;;;4.05;0.82;;;13.00;95.90;;;;;;5130961;28;20138;-62
2023/10/17 12:28:08;;;;;;;3.28;0.60;;;12.90;95.90;;;;;;5112674;28;20051;-62
2023/10/17 12:30:39;;;;;;;2.63;0.65;;;12.90;96.30;;;;;;5095395;28;20054;-62
2023/10/17 12:33:05;;;;;;;1.20;0.63;;;12.90;96.20;;;;;;5112744;28;20039;-62
2023/10/17 12:35:31;;;;;;;3.35;0.80;;;13.10;96.40;;;;;;5112855;28;20092;-62
2023/10/17 12:38:14;;;;;;;2.10;0.80;;;13.30;95.50;;;;;;5112645;28;20118;-62
2023/10/17 12:40:40;;;;;;;3.72;0.52;;;13.70;94.70;;;;;;5113016;28;20068;-62
2023/10/17 12:43:08;;;;;;;2.97;0.73;;;13.70;94.80;;;;;;5112645;28;20039;-62
2023/10/17 12:45:36;;;;;;;1.98;0.70;;;13.60;95.60;;;;;;5112822;28;20047;-62
2023/10/17 12:48:02;;;;;;;3.50;0.70;;;13.40;95.20;;;;;;5112226;28;20086;-62
2023/10/17 12:50:27;;;;;;;1.50;0.73;;;13.30;95.60;;;;;;5133739;27;20071;-62
2023/10/17 12:52:53;;;;;;;1.70;0.80;;;13.10;95.30;;;;;;5116387;27;20047;-62
2023/10/17 12:55:19;;;;;;;2.33;0.80;;;13.10;96.20;;;;;;5135130;27;20050;-62
2023/10/17 12:57:44;;;;;;;2.20;0.80;;;13.00;96.50;;;;;;5099541;27;20091;-64
2023/10/17 13:00:11;;;;;;;2.33;0.85;;;12.90;96.20;;;;;;5116491;27;20042;-63
2023/10/17 13:02:40;;;;;;;2.63;0.90;;;12.90;96.40;;;;;;5134903;27;20047;-63
2023/10/17 13:05:12;;;;;;;2.50;0.85;;;12.80;96.40;;;;;;5134707;27;20038;-62
2023/10/17 13:07:39;;;;;;;3.17;1.08;;;13.50;96.30;;;;;;5134689;27;20039;-62
2023/10/17 13:10:08;;;;;;;1.70;0.90;;;13.60;96.10;;;;;;5115873;27;20043;-62
2023/10/17 13:12:35;;;;;;;1.90;0.73;;;13.90;95.80;;;;;;5099384;27;20047;-62
2023/10/17 13:15:01;;;;;;;2.50;1.10;;;14.10;95.10;;;;;;5115915;27;20054;-62
2023/10/17 13:17:28;;;;;;;2.05;0.90;;;14.60;94.60;;;;;;5116436;27;20039;-62
2023/10/17 13:19:55;;;;;;;9.65;2.25;;;15.00;93.80;;;;;;5134373;27;20497;-62
2023/10/17 13:22:22;;;;;;;1.95;0.60;;;14.70;93.40;;;;;;5134469;27;20035;-62
2023/10/17 13:24:50;;;;;;;2.92;0.90;;;14.40;93.50;;;;;;5116440;27;20039;-62
2023/10/17 13:27:15;;;;;;;3.53;1.00;;;14.30;94.10;;;;;;5115966;27;20126;-62
2023/10/17 13:29:42;;;;;;;2.13;0.82;;;14.30;94.40;;;;;;5116002;27;20126;-62
2023/10/17 13:32:08;;;;;;;2.10;0.90;;;14.30;94.40;;;;;;5115620;27;20076;-62
2023/10/17 13:34:37;;;;;;;3.20;1.05;;;14.30;94.40;;;;;;5115975;27;20130;-62
2023/10/17 13:37:04;;;;;;;2.47;0.80;;;14.20;93.50;;;;;;5115547;27;20043;-61
2023/10/17 13:39:34;;;;;;;3.35;0.90;;;14.30;93.40;;;;;;5134283;27;20387;-62
2023/10/17 13:42:02;;;;;;;1.27;0.73;;;14.00;93.50;;;;;;5115470;27;20110;-62
2023/10/17 13:44:29;;;;;;;3.80;1.05;;;13.60;93.70;;;;;;5115669;27;20039;-62
2023/10/17 13:46:55;;;;;;;3.72;1.00;;;13.30;94.10;;;;;;5133784;27;20042;-61
2023/10/17 13:49:21;;;;;;;3.92;1.08;;;13.10;94.50;;;;;;5133760;27;20050;-62
2023/10/17 13:51:47;;;;;;;1.73;0.88;;;12.90;94.90;;;;;;5134278;27;20386;-62
2023/10/17 13:54:13;;;;;;;3.28;0.70;;;12.80;95.60;;;;;;5115322;27;20035;-61
2023/10/17 13:56:40;;;;;;;1.98;0.70;;;12.70;95.70;;;;;;5115511;27;20035;-62
2023/10/17 13:59:10;;;;;;;3.92;1.05;;;12.60;95.90;;;;;;5114909;27;20047;-62
2023/10/17 14:01:42;;;;;;;2.88;0.90;;;12.50;96.30;;;;;;5114843;27;20520;-62
2023/10/17 14:04:10;;;;;;;1.63;0.70;;;12.40;96.60;;;;;;5133450;27;20031;-62
2023/10/17 14:06:42;;;;;;;3.95;0.80;;;12.40;96.80;;;;;;5098446;27;20047;-62
2023/10/17 14:09:14;;;;;;;1.92;0.70;;;12.40;96.80;;;;;;5115284;27;20046;-62
2023/10/17 14:11:47;;;;;;;3.10;0.80;;;12.40;96.70;;;;;;5115202;27;20085;-61
2023/10/17 14:14:13;;;;;;;;;;;12.50;96.90;;;;;;5133670;27;20055;-62
2023/10/17 14:16:42;;;;;;;3.58;1.10;;;12.50;96.60;;;;;;5133634;27;19915;-62
2023/10/17 14:27:24;;;;;;;2.80;0.90;;;12.20;96.80;;;;;;5013010;28;20508;-62
2023/10/17 14:29:51;;;;;;;2.15;0.90;;;12.10;97.20;;;;;;5030094;28;20480;-62
2023/10/17 14:32:20;;;;;;;5.78;1.77;;;12.00;97.30;;;;;;5013159;28;20124;-62
2023/10/17 14:34:47;;;;;;;3.50;1.58;;;12.00;97.50;;;;;;5013106;28;20060;-62
2023/10/17 14:37:14;;;;;;;2.20;0.88;;;12.00;97.80;;;;;;5012936;28;20151;-62
2023/10/17 14:39:40;;;;;;;3.72;0.98;;;11.90;97.30;;;;;;5029660;28;20512;-62
2023/10/17 14:42:06;;;;;;;2.03;0.88;;;11.80;97.40;;;;;;5013031;28;20115;-61
2023/10/17 14:44:32;;;;;;;2.97;0.80;;;11.80;97.90;;;;;;5029259;28;20124;-62
2023/10/17 14:46:58;;;;;;;1.90;0.90;;;11.80;98.10;;;;;;5013010;28;20054;-62
2023/10/17 14:49:26;;;;;;;2.72;1.00;;;11.80;97.80;;;;;;5012940;28;20056;-62
2023/10/17 14:51:53;;;;;;;2.08;1.00;;;11.80;98.00;;;;;;5013049;28;20417;-62
2023/10/17 14:54:19;;;;;;;2.47;1.00;;;11.80;98.10;;;;;;5029322;28;20057;-62
2023/10/17 14:56:45;;;;;;;3.45;0.90;;;11.80;98.40;;;;;;5012779;28;20045;-62
2023/10/17 14:59:11;;;;;;;3.75;1.08;;;11.80;98.50;;;;;;5029233;28;20037;-62
2023/10/17 15:01:37;;;;;;;2.78;1.00;;;11.70;98.60;;;;;;5095383;27;20047;-62
2023/10/17 15:04:03;;;;;;;3.88;1.20;;;11.70;99.20;;;;;;5114484;27;20538;-62
2023/10/17 15:06:31;;;;;;;4.03;1.05;;;11.60;99.00;;;;;;5113640;27;20066;-62
2023/10/17 15:08:57;;;;;;;4.95;1.33;;;11.60;99.20;;;;;;5132444;27;20092;-62
2023/10/17 15:11:23;;;;;;;3.15;1.00;;;11.50;99.20;;;;;;5114150;27;20047;-61
2023/10/17 15:13:49;;;;;;;3.40;0.90;;;11.50;99.60;;;;;;5113892;27;20046;-62
2023/10/17 15:16:19;;;;;;;2.72;0.98;;;11.50;99.80;;;;;;5132279;27;20043;-62
2023/10/17 15:18:45;;;;;;;3.33;1.10;;;11.60;99.90;;;;;;5113680;27;20227;-62
2023/10/17 15:21:18;;;;;;;3.22;1.38;;;11.70;99.90;;;;;;5132118;27;20451;-62
2023/10/17 15:23:44;;;;;;;2.53;1.48;;;11.70;99.90;;;;;;5132294;27;20079;-62
2023/10/17 15:26:10;;;;;;;3.10;1.25;;;11.70;99.90;;;;;;5110255;28;20051;-62
2023/10/17 15:28:37;;;;;;;3.55;1.38;;;11.60;99.90;;;;;;5110124;28;20055;-62
2023/10/17 15:31:09;;;;;;;3.35;1.30;;;11.60;99.90;;;;;;5110324;28;20424;-62
2023/10/17 15:33:36;;;;;;;;;;;11.50;99.90;;;;;;5110454;28;20066;-62
2023/10/17 15:36:03;;;;;;;1.33;0.90;;;11.40;99.90;;;;;;5111906;28;19988;-62
2023/10/17 15:38:30;;;;;;;3.05;1.10;;;11.40;99.90;;;;;;5109707;28;20051;-62
2023/10/17 15:40:57;;;;;;;3.65;1.13;;;11.30;99.90;;;;;;5110479;28;20092;-63